sensor_id;sensor_type;location;lat;lon;timestamp;P1;durP1;ratioP1;P2;durP2;ratioP2
13672;SDS011;6909;52.202;9.876;2022-07-29T00:00:04;2.67;;;1.00;;
13672;SDS011;6909;52.202;9.876;2022-07-29T00:02:31;3.43;;;1.17;;
13672;SDS011;6909;52.202;9.876;2022-07-29T00:04:58;1.13;;;0.90;;
13672;SDS011;6909;52.202;9.876;2022-07-29T00:07:25;1.87;;;0.70;;
13672;SDS011;6909;52.202;9.876;2022-07-29T00:09:52;2.17;;;0.80;;
13672;SDS011;6909;52.202;9.876;2022-07-29T00:12:18;3.63;;;0.90;;
13672;SDS011;6909;52.202;9.876;2022-07-29T00:14:47;4.17;;;0.80;;
13672;SDS011;6909;52.202;9.876;2022-07-29T00:17:13;5.47;;;1.10;;
13672;SDS011;6909;52.202;9.876;2022-07-29T00:19:40;3.67;;;1.10;;
13672;SDS011;6909;52.202;9.876;2022-07-29T00:22:07;1.90;;;1.00;;
13672;SDS011;6909;52.202;9.876;2022-07-29T00:24:34;1.00;;;0.70;;
13672;SDS011;6909;52.202;9.876;2022-07-29T00:27:00;1.17;;;0.90;;
13672;SDS011;6909;52.202;9.876;2022-07-29T00:29:27;2.17;;;0.90;;
13672;SDS011;6909;52.202;9.876;2022-07-29T00:31:55;4.73;;;0.80;;
13672;SDS011;6909;52.202;9.876;2022-07-29T00:34:21;1.60;;;0.80;;
13672;SDS011;6909;52.202;9.876;2022-07-29T00:37:06;2.33;;;0.90;;
13672;SDS011;6909;52.202;9.876;2022-07-29T00:39:32;1.10;;;0.80;;
13672;SDS011;6909;52.202;9.876;2022-07-29T00:42:01;2.10;;;0.80;;
13672;SDS011;6909;52.202;9.876;2022-07-29T00:44:35;2.07;;;0.97;;
13672;SDS011;6909;52.202;9.876;2022-07-29T00:47:04;3.93;;;0.97;;
13672;SDS011;6909;52.202;9.876;2022-07-29T00:49:31;1.20;;;0.80;;
13672;SDS011;6909;52.202;9.876;2022-07-29T00:51:58;2.67;;;0.83;;
13672;SDS011;6909;52.202;9.876;2022-07-29T00:54:26;2.60;;;1.07;;
13672;SDS011;6909;52.202;9.876;2022-07-29T00:56:54;1.77;;;1.00;;
13672;SDS011;6909;52.202;9.876;2022-07-29T00:59:22;1.67;;;0.90;;
13672;SDS011;6909;52.202;9.876;2022-07-29T01:01:49;3.13;;;1.00;;
13672;SDS011;6909;52.202;9.876;2022-07-29T01:04:17;1.20;;;1.00;;
13672;SDS011;6909;52.202;9.876;2022-07-29T01:06:44;1.87;;;0.80;;
13672;SDS011;6909;52.202;9.876;2022-07-29T01:09:12;3.13;;;0.80;;
13672;SDS011;6909;52.202;9.876;2022-07-29T01:11:39;1.67;;;1.00;;
13672;SDS011;6909;52.202;9.876;2022-07-29T01:14:07;1.40;;;0.93;;
13672;SDS011;6909;52.202;9.876;2022-07-29T01:16:37;1.87;;;1.00;;
13672;SDS011;6909;52.202;9.876;2022-07-29T01:19:12;2.87;;;1.00;;
13672;SDS011;6909;52.202;9.876;2022-07-29T01:21:50;1.00;;;0.70;;
13672;SDS011;6909;52.202;9.876;2022-07-29T01:24:30;1.80;;;1.00;;
13672;SDS011;6909;52.202;9.876;2022-07-29T01:27:09;2.77;;;0.87;;
13672;SDS011;6909;52.202;9.876;2022-07-29T01:29:54;1.60;;;0.80;;
13672;SDS011;6909;52.202;9.876;2022-07-29T01:32:24;3.53;;;1.00;;
13672;SDS011;6909;52.202;9.876;2022-07-29T01:34:54;1.20;;;0.90;;
13672;SDS011;6909;52.202;9.876;2022-07-29T01:37:26;2.43;;;0.90;;
13672;SDS011;6909;52.202;9.876;2022-07-29T01:39:58;2.20;;;0.97;;
13672;SDS011;6909;52.202;9.876;2022-07-29T01:42:27;2.80;;;0.90;;
13672;SDS011;6909;52.202;9.876;2022-07-29T01:45:08;2.10;;;1.07;;
13672;SDS011;6909;52.202;9.876;2022-07-29T01:47:41;5.43;;;1.00;;
13672;SDS011;6909;52.202;9.876;2022-07-29T01:50:12;1.63;;;1.00;;
13672;SDS011;6909;52.202;9.876;2022-07-29T01:52:43;2.03;;;1.10;;
13672;SDS011;6909;52.202;9.876;2022-07-29T01:55:13;2.33;;;1.10;;
13672;SDS011;6909;52.202;9.876;2022-07-29T01:57:43;3.20;;;1.27;;
13672;SDS011;6909;52.202;9.876;2022-07-29T02:00:14;4.60;;;1.23;;
13672;SDS011;6909;52.202;9.876;2022-07-29T02:02:42;2.20;;;1.10;;
13672;SDS011;6909;52.202;9.876;2022-07-29T02:05:12;3.33;;;1.93;;
13672;SDS011;6909;52.202;9.876;2022-07-29T02:07:42;2.43;;;0.80;;
13672;SDS011;6909;52.202;9.876;2022-07-29T02:10:10;2.27;;;1.00;;
13672;SDS011;6909;52.202;9.876;2022-07-29T02:12:38;1.80;;;0.90;;
13672;SDS011;6909;52.202;9.876;2022-07-29T02:15:07;4.03;;;1.27;;
13672;SDS011;6909;52.202;9.876;2022-07-29T02:17:37;1.43;;;0.90;;
13672;SDS011;6909;52.202;9.876;2022-07-29T02:20:08;2.20;;;0.80;;
13672;SDS011;6909;52.202;9.876;2022-07-29T02:22:37;2.20;;;0.90;;
13672;SDS011;6909;52.202;9.876;2022-07-29T02:25:05;1.00;;;0.90;;
13672;SDS011;6909;52.202;9.876;2022-07-29T02:27:34;2.07;;;0.77;;
13672;SDS011;6909;52.202;9.876;2022-07-29T02:30:03;2.10;;;1.37;;
13672;SDS011;6909;52.202;9.876;2022-07-29T02:32:31;2.03;;;0.97;;
13672;SDS011;6909;52.202;9.876;2022-07-29T02:35:02;2.10;;;1.17;;
13672;SDS011;6909;52.202;9.876;2022-07-29T02:37:30;2.57;;;0.83;;
13672;SDS011;6909;52.202;9.876;2022-07-29T02:39:57;2.47;;;1.70;;
13672;SDS011;6909;52.202;9.876;2022-07-29T02:42:26;2.13;;;1.00;;
13672;SDS011;6909;52.202;9.876;2022-07-29T02:44:54;1.53;;;0.90;;
13672;SDS011;6909;52.202;9.876;2022-07-29T02:47:22;2.40;;;0.90;;
13672;SDS011;6909;52.202;9.876;2022-07-29T02:49:54;2.47;;;1.07;;
13672;SDS011;6909;52.202;9.876;2022-07-29T02:52:28;2.33;;;0.87;;
13672;SDS011;6909;52.202;9.876;2022-07-29T02:55:02;1.77;;;1.10;;
13672;SDS011;6909;52.202;9.876;2022-07-29T02:57:39;1.30;;;0.90;;
13672;SDS011;6909;52.202;9.876;2022-07-29T03:00:09;1.00;;;0.70;;
13672;SDS011;6909;52.202;9.876;2022-07-29T03:02:37;3.63;;;0.80;;
13672;SDS011;6909;52.202;9.876;2022-07-29T03:05:08;1.90;;;1.00;;
13672;SDS011;6909;52.202;9.876;2022-07-29T03:07:40;3.37;;;0.80;;
13672;SDS011;6909;52.202;9.876;2022-07-29T03:10:09;2.60;;;0.87;;
13672;SDS011;6909;52.202;9.876;2022-07-29T03:12:35;1.63;;;0.93;;
13672;SDS011;6909;52.202;9.876;2022-07-29T03:15:03;1.83;;;0.90;;
13672;SDS011;6909;52.202;9.876;2022-07-29T03:17:30;1.30;;;0.80;;
13672;SDS011;6909;52.202;9.876;2022-07-29T03:19:58;3.30;;;1.10;;
13672;SDS011;6909;52.202;9.876;2022-07-29T03:22:25;1.50;;;1.10;;
13672;SDS011;6909;52.202;9.876;2022-07-29T03:24:54;1.67;;;1.07;;
13672;SDS011;6909;52.202;9.876;2022-07-29T03:27:20;4.00;;;1.20;;
13672;SDS011;6909;52.202;9.876;2022-07-29T03:29:47;3.37;;;1.03;;
13672;SDS011;6909;52.202;9.876;2022-07-29T03:32:14;1.43;;;1.20;;
13672;SDS011;6909;52.202;9.876;2022-07-29T03:34:41;2.77;;;1.13;;
13672;SDS011;6909;52.202;9.876;2022-07-29T03:37:07;1.30;;;1.07;;
13672;SDS011;6909;52.202;9.876;2022-07-29T03:39:35;5.23;;;1.33;;
13672;SDS011;6909;52.202;9.876;2022-07-29T03:42:07;2.00;;;1.00;;
13672;SDS011;6909;52.202;9.876;2022-07-29T03:44:36;2.93;;;1.10;;
13672;SDS011;6909;52.202;9.876;2022-07-29T03:47:04;1.03;;;0.83;;
13672;SDS011;6909;52.202;9.876;2022-07-29T03:49:34;1.10;;;0.87;;
13672;SDS011;6909;52.202;9.876;2022-07-29T03:52:03;2.23;;;1.00;;
13672;SDS011;6909;52.202;9.876;2022-07-29T03:54:31;2.37;;;1.10;;
13672;SDS011;6909;52.202;9.876;2022-07-29T03:56:58;2.80;;;1.00;;
13672;SDS011;6909;52.202;9.876;2022-07-29T03:59:27;1.43;;;1.00;;
13672;SDS011;6909;52.202;9.876;2022-07-29T04:01:54;1.37;;;1.00;;
13672;SDS011;6909;52.202;9.876;2022-07-29T04:04:22;2.93;;;1.00;;
13672;SDS011;6909;52.202;9.876;2022-07-29T04:06:49;2.83;;;0.90;;
13672;SDS011;6909;52.202;9.876;2022-07-29T04:09:16;2.23;;;0.90;;
13672;SDS011;6909;52.202;9.876;2022-07-29T04:11:43;1.73;;;0.83;;
13672;SDS011;6909;52.202;9.876;2022-07-29T04:14:10;2.57;;;1.10;;
13672;SDS011;6909;52.202;9.876;2022-07-29T04:16:38;2.40;;;0.77;;
13672;SDS011;6909;52.202;9.876;2022-07-29T04:19:05;3.60;;;1.00;;
13672;SDS011;6909;52.202;9.876;2022-07-29T04:21:36;1.63;;;1.20;;
13672;SDS011;6909;52.202;9.876;2022-07-29T04:24:03;1.27;;;1.00;;
13672;SDS011;6909;52.202;9.876;2022-07-29T04:26:30;1.20;;;0.60;;
13672;SDS011;6909;52.202;9.876;2022-07-29T04:28:57;1.47;;;1.00;;
13672;SDS011;6909;52.202;9.876;2022-07-29T04:31:23;2.00;;;0.90;;
13672;SDS011;6909;52.202;9.876;2022-07-29T04:33:51;1.37;;;0.80;;
13672;SDS011;6909;52.202;9.876;2022-07-29T04:36:18;1.90;;;0.73;;
13672;SDS011;6909;52.202;9.876;2022-07-29T04:38:44;1.27;;;0.80;;
13672;SDS011;6909;52.202;9.876;2022-07-29T04:41:11;5.40;;;1.30;;
13672;SDS011;6909;52.202;9.876;2022-07-29T04:43:38;1.10;;;0.80;;
13672;SDS011;6909;52.202;9.876;2022-07-29T04:46:05;1.60;;;0.80;;
13672;SDS011;6909;52.202;9.876;2022-07-29T04:48:32;0.80;;;0.70;;
13672;SDS011;6909;52.202;9.876;2022-07-29T04:51:01;2.03;;;0.90;;
13672;SDS011;6909;52.202;9.876;2022-07-29T04:53:27;3.03;;;0.90;;
13672;SDS011;6909;52.202;9.876;2022-07-29T04:55:54;1.50;;;0.93;;
13672;SDS011;6909;52.202;9.876;2022-07-29T04:58:21;1.30;;;0.80;;
13672;SDS011;6909;52.202;9.876;2022-07-29T05:00:48;1.43;;;1.03;;
13672;SDS011;6909;52.202;9.876;2022-07-29T05:03:15;3.27;;;1.53;;
13672;SDS011;6909;52.202;9.876;2022-07-29T05:05:42;2.17;;;1.00;;
13672;SDS011;6909;52.202;9.876;2022-07-29T05:08:10;1.10;;;1.00;;
13672;SDS011;6909;52.202;9.876;2022-07-29T05:10:36;2.10;;;1.17;;
13672;SDS011;6909;52.202;9.876;2022-07-29T05:13:04;1.33;;;0.90;;
13672;SDS011;6909;52.202;9.876;2022-07-29T05:15:31;1.77;;;0.80;;
13672;SDS011;6909;52.202;9.876;2022-07-29T05:17:58;3.90;;;0.90;;
13672;SDS011;6909;52.202;9.876;2022-07-29T05:20:25;1.13;;;1.00;;
13672;SDS011;6909;52.202;9.876;2022-07-29T05:22:53;2.00;;;1.17;;
13672;SDS011;6909;52.202;9.876;2022-07-29T05:25:21;1.23;;;1.13;;
13672;SDS011;6909;52.202;9.876;2022-07-29T05:27:48;1.67;;;1.07;;
13672;SDS011;6909;52.202;9.876;2022-07-29T05:30:14;1.53;;;0.90;;
13672;SDS011;6909;52.202;9.876;2022-07-29T05:32:41;3.03;;;1.07;;
13672;SDS011;6909;52.202;9.876;2022-07-29T05:35:08;1.33;;;1.00;;
13672;SDS011;6909;52.202;9.876;2022-07-29T05:37:34;2.03;;;0.93;;
13672;SDS011;6909;52.202;9.876;2022-07-29T05:40:01;1.50;;;1.10;;
13672;SDS011;6909;52.202;9.876;2022-07-29T05:42:29;3.20;;;1.10;;
13672;SDS011;6909;52.202;9.876;2022-07-29T05:44:56;1.20;;;1.03;;
13672;SDS011;6909;52.202;9.876;2022-07-29T05:47:23;1.65;;;0.98;;
13672;SDS011;6909;52.202;9.876;2022-07-29T05:49:50;2.10;;;1.10;;
13672;SDS011;6909;52.202;9.876;2022-07-29T05:52:16;2.92;;;1.10;;
13672;SDS011;6909;52.202;9.876;2022-07-29T05:54:43;1.87;;;1.20;;
13672;SDS011;6909;52.202;9.876;2022-07-29T05:57:14;1.73;;;1.00;;
13672;SDS011;6909;52.202;9.876;2022-07-29T05:59:42;3.73;;;1.10;;
13672;SDS011;6909;52.202;9.876;2022-07-29T06:02:09;1.07;;;0.90;;
13672;SDS011;6909;52.202;9.876;2022-07-29T06:04:36;2.67;;;1.03;;
13672;SDS011;6909;52.202;9.876;2022-07-29T06:07:03;1.30;;;1.20;;
13672;SDS011;6909;52.202;9.876;2022-07-29T06:09:30;1.73;;;1.10;;
13672;SDS011;6909;52.202;9.876;2022-07-29T06:11:57;2.10;;;1.43;;
13672;SDS011;6909;52.202;9.876;2022-07-29T06:14:23;3.00;;;1.30;;
13672;SDS011;6909;52.202;9.876;2022-07-29T06:16:52;2.73;;;1.70;;
13672;SDS011;6909;52.202;9.876;2022-07-29T06:19:19;3.27;;;1.00;;
13672;SDS011;6909;52.202;9.876;2022-07-29T06:21:46;2.47;;;1.10;;
13672;SDS011;6909;52.202;9.876;2022-07-29T06:24:13;1.25;;;1.10;;
13672;SDS011;6909;52.202;9.876;2022-07-29T06:26:40;2.33;;;1.00;;
13672;SDS011;6909;52.202;9.876;2022-07-29T06:29:08;3.47;;;1.00;;
13672;SDS011;6909;52.202;9.876;2022-07-29T06:31:36;1.60;;;0.90;;
13672;SDS011;6909;52.202;9.876;2022-07-29T06:34:04;1.88;;;1.00;;
13672;SDS011;6909;52.202;9.876;2022-07-29T06:36:33;1.85;;;1.13;;
13672;SDS011;6909;52.202;9.876;2022-07-29T06:39:00;1.42;;;1.08;;
13672;SDS011;6909;52.202;9.876;2022-07-29T06:41:27;1.98;;;1.35;;
13672;SDS011;6909;52.202;9.876;2022-07-29T06:43:53;8.77;;;1.77;;
13672;SDS011;6909;52.202;9.876;2022-07-29T06:46:20;3.03;;;1.23;;
13672;SDS011;6909;52.202;9.876;2022-07-29T06:48:47;2.25;;;1.25;;
13672;SDS011;6909;52.202;9.876;2022-07-29T06:51:16;4.13;;;1.60;;
13672;SDS011;6909;52.202;9.876;2022-07-29T06:53:43;3.28;;;1.40;;
13672;SDS011;6909;52.202;9.876;2022-07-29T06:56:10;3.67;;;1.60;;
13672;SDS011;6909;52.202;9.876;2022-07-29T06:58:38;3.20;;;1.50;;
13672;SDS011;6909;52.202;9.876;2022-07-29T07:01:06;2.58;;;1.63;;
13672;SDS011;6909;52.202;9.876;2022-07-29T07:03:32;3.50;;;1.60;;
13672;SDS011;6909;52.202;9.876;2022-07-29T07:05:59;3.05;;;1.40;;
13672;SDS011;6909;52.202;9.876;2022-07-29T07:08:27;3.47;;;1.40;;
13672;SDS011;6909;52.202;9.876;2022-07-29T07:10:54;1.48;;;1.33;;
13672;SDS011;6909;52.202;9.876;2022-07-29T07:13:21;3.28;;;1.30;;
13672;SDS011;6909;52.202;9.876;2022-07-29T07:15:48;3.35;;;1.25;;
13672;SDS011;6909;52.202;9.876;2022-07-29T07:18:16;3.30;;;1.52;;
13672;SDS011;6909;52.202;9.876;2022-07-29T07:20:44;2.33;;;1.48;;
13672;SDS011;6909;52.202;9.876;2022-07-29T07:23:11;2.08;;;1.33;;
13672;SDS011;6909;52.202;9.876;2022-07-29T07:25:39;2.25;;;1.42;;
13672;SDS011;6909;52.202;9.876;2022-07-29T07:28:06;3.38;;;1.48;;
13672;SDS011;6909;52.202;9.876;2022-07-29T07:30:33;2.13;;;1.20;;
13672;SDS011;6909;52.202;9.876;2022-07-29T07:33:02;1.92;;;1.35;;
13672;SDS011;6909;52.202;9.876;2022-07-29T07:35:29;4.20;;;1.65;;
13672;SDS011;6909;52.202;9.876;2022-07-29T07:37:56;2.55;;;1.50;;
13672;SDS011;6909;52.202;9.876;2022-07-29T07:40:23;3.15;;;1.10;;
13672;SDS011;6909;52.202;9.876;2022-07-29T07:42:51;2.88;;;1.35;;
13672;SDS011;6909;52.202;9.876;2022-07-29T07:45:18;3.13;;;1.65;;
13672;SDS011;6909;52.202;9.876;2022-07-29T07:47:45;2.80;;;1.58;;
13672;SDS011;6909;52.202;9.876;2022-07-29T07:50:11;2.28;;;1.55;;
13672;SDS011;6909;52.202;9.876;2022-07-29T07:52:45;2.83;;;1.45;;
13672;SDS011;6909;52.202;9.876;2022-07-29T07:55:13;3.15;;;1.27;;
13672;SDS011;6909;52.202;9.876;2022-07-29T07:57:40;2.70;;;1.48;;
13672;SDS011;6909;52.202;9.876;2022-07-29T08:00:08;3.17;;;1.48;;
13672;SDS011;6909;52.202;9.876;2022-07-29T08:02:36;2.03;;;1.42;;
13672;SDS011;6909;52.202;9.876;2022-07-29T08:05:04;5.20;;;1.67;;
13672;SDS011;6909;52.202;9.876;2022-07-29T08:07:31;3.03;;;1.13;;
13672;SDS011;6909;52.202;9.876;2022-07-29T08:09:58;3.38;;;1.55;;
13672;SDS011;6909;52.202;9.876;2022-07-29T08:12:24;2.58;;;1.35;;
13672;SDS011;6909;52.202;9.876;2022-07-29T08:14:51;3.00;;;1.92;;
13672;SDS011;6909;52.202;9.876;2022-07-29T08:17:19;3.33;;;1.35;;
13672;SDS011;6909;52.202;9.876;2022-07-29T08:19:45;4.60;;;1.17;;
13672;SDS011;6909;52.202;9.876;2022-07-29T08:22:13;3.08;;;1.90;;
13672;SDS011;6909;52.202;9.876;2022-07-29T08:24:40;1.95;;;1.50;;
13672;SDS011;6909;52.202;9.876;2022-07-29T08:27:11;2.13;;;1.20;;
13672;SDS011;6909;52.202;9.876;2022-07-29T08:29:39;1.65;;;1.40;;
13672;SDS011;6909;52.202;9.876;2022-07-29T08:32:06;1.50;;;1.20;;
13672;SDS011;6909;52.202;9.876;2022-07-29T08:34:34;5.25;;;1.58;;
13672;SDS011;6909;52.202;9.876;2022-07-29T08:37:00;6.05;;;2.45;;
13672;SDS011;6909;52.202;9.876;2022-07-29T08:39:27;4.40;;;1.50;;
13672;SDS011;6909;52.202;9.876;2022-07-29T08:41:54;2.92;;;1.70;;
13672;SDS011;6909;52.202;9.876;2022-07-29T08:44:20;2.65;;;1.38;;
13672;SDS011;6909;52.202;9.876;2022-07-29T08:46:47;3.70;;;1.60;;
13672;SDS011;6909;52.202;9.876;2022-07-29T08:49:14;2.72;;;1.60;;
13672;SDS011;6909;52.202;9.876;2022-07-29T08:51:42;3.30;;;1.52;;
13672;SDS011;6909;52.202;9.876;2022-07-29T08:54:09;2.00;;;1.30;;
13672;SDS011;6909;52.202;9.876;2022-07-29T08:56:37;3.13;;;1.50;;
13672;SDS011;6909;52.202;9.876;2022-07-29T08:59:05;2.80;;;1.45;;
13672;SDS011;6909;52.202;9.876;2022-07-29T09:01:36;4.70;;;1.52;;
13672;SDS011;6909;52.202;9.876;2022-07-29T09:04:06;2.38;;;1.40;;
13672;SDS011;6909;52.202;9.876;2022-07-29T09:06:37;2.13;;;1.63;;
13672;SDS011;6909;52.202;9.876;2022-07-29T09:09:07;2.47;;;1.60;;
13672;SDS011;6909;52.202;9.876;2022-07-29T09:11:34;3.72;;;1.70;;
13672;SDS011;6909;52.202;9.876;2022-07-29T09:14:08;1.92;;;1.30;;
13672;SDS011;6909;52.202;9.876;2022-07-29T09:16:48;9.80;;;2.70;;
13672;SDS011;6909;52.202;9.876;2022-07-29T09:19:19;2.65;;;1.70;;
13672;SDS011;6909;52.202;9.876;2022-07-29T09:21:57;3.45;;;1.77;;
13672;SDS011;6909;52.202;9.876;2022-07-29T09:24:26;2.28;;;1.50;;
13672;SDS011;6909;52.202;9.876;2022-07-29T09:27:03;3.13;;;1.73;;
13672;SDS011;6909;52.202;9.876;2022-07-29T09:29:35;3.65;;;1.85;;
13672;SDS011;6909;52.202;9.876;2022-07-29T09:32:02;2.45;;;1.73;;
13672;SDS011;6909;52.202;9.876;2022-07-29T09:34:33;3.92;;;1.52;;
13672;SDS011;6909;52.202;9.876;2022-07-29T09:37:00;1.85;;;1.60;;
13672;SDS011;6909;52.202;9.876;2022-07-29T09:39:28;2.03;;;1.80;;
13672;SDS011;6909;52.202;9.876;2022-07-29T09:41:57;2.47;;;1.50;;
13672;SDS011;6909;52.202;9.876;2022-07-29T09:44:25;3.20;;;1.63;;
13672;SDS011;6909;52.202;9.876;2022-07-29T09:46:53;2.60;;;1.70;;
13672;SDS011;6909;52.202;9.876;2022-07-29T09:49:24;3.30;;;1.58;;
13672;SDS011;6909;52.202;9.876;2022-07-29T09:52:03;3.05;;;1.70;;
13672;SDS011;6909;52.202;9.876;2022-07-29T09:54:34;2.15;;;1.63;;
13672;SDS011;6909;52.202;9.876;2022-07-29T09:57:02;2.40;;;1.73;;
13672;SDS011;6909;52.202;9.876;2022-07-29T09:59:30;2.80;;;1.88;;
13672;SDS011;6909;52.202;9.876;2022-07-29T10:01:57;2.45;;;1.55;;
13672;SDS011;6909;52.202;9.876;2022-07-29T10:04:26;4.85;;;1.90;;
13672;SDS011;6909;52.202;9.876;2022-07-29T10:07:03;1.90;;;1.70;;
13672;SDS011;6909;52.202;9.876;2022-07-29T10:09:30;3.30;;;1.85;;
13672;SDS011;6909;52.202;9.876;2022-07-29T10:12:09;4.90;;;1.60;;
13672;SDS011;6909;52.202;9.876;2022-07-29T10:14:38;2.35;;;1.35;;
13672;SDS011;6909;52.202;9.876;2022-07-29T10:17:06;7.93;;;2.28;;
13672;SDS011;6909;52.202;9.876;2022-07-29T10:19:35;2.40;;;1.70;;
13672;SDS011;6909;52.202;9.876;2022-07-29T10:22:04;3.47;;;1.85;;
13672;SDS011;6909;52.202;9.876;2022-07-29T10:24:33;3.25;;;1.70;;
13672;SDS011;6909;52.202;9.876;2022-07-29T10:27:01;2.63;;;1.95;;
13672;SDS011;6909;52.202;9.876;2022-07-29T10:29:30;3.25;;;1.90;;
13672;SDS011;6909;52.202;9.876;2022-07-29T10:32:00;1.92;;;1.75;;
13672;SDS011;6909;52.202;9.876;2022-07-29T10:34:43;3.47;;;1.83;;
13672;SDS011;6909;52.202;9.876;2022-07-29T10:37:28;3.33;;;1.67;;
13672;SDS011;6909;52.202;9.876;2022-07-29T10:40:07;5.05;;;1.98;;
13672;SDS011;6909;52.202;9.876;2022-07-29T10:43:02;3.72;;;1.95;;
13672;SDS011;6909;52.202;9.876;2022-07-29T10:45:43;2.85;;;1.77;;
13672;SDS011;6909;52.202;9.876;2022-07-29T10:48:11;3.35;;;1.90;;
13672;SDS011;6909;52.202;9.876;2022-07-29T10:50:51;3.30;;;1.88;;
13672;SDS011;6909;52.202;9.876;2022-07-29T10:53:19;3.83;;;1.95;;
13672;SDS011;6909;52.202;9.876;2022-07-29T10:55:46;2.15;;;1.70;;
13672;SDS011;6909;52.202;9.876;2022-07-29T10:58:15;4.07;;;1.70;;
13672;SDS011;6909;52.202;9.876;2022-07-29T11:00:44;2.58;;;1.70;;
13672;SDS011;6909;52.202;9.876;2022-07-29T11:06:11;3.67;;;1.40;;
13672;SDS011;6909;52.202;9.876;2022-07-29T11:08:39;2.28;;;1.60;;
13672;SDS011;6909;52.202;9.876;2022-07-29T11:14:06;3.72;;;1.85;;
13672;SDS011;6909;52.202;9.876;2022-07-29T11:19:27;3.38;;;2.05;;
13672;SDS011;6909;52.202;9.876;2022-07-29T11:21:53;2.20;;;1.92;;
13672;SDS011;6909;52.202;9.876;2022-07-29T11:24:21;2.45;;;2.10;;
13672;SDS011;6909;52.202;9.876;2022-07-29T11:27:11;3.03;;;1.70;;
13672;SDS011;6909;52.202;9.876;2022-07-29T11:29:41;2.38;;;1.60;;
13672;SDS011;6909;52.202;9.876;2022-07-29T11:32:16;2.35;;;1.70;;
13672;SDS011;6909;52.202;9.876;2022-07-29T11:34:45;2.13;;;1.80;;
13672;SDS011;6909;52.202;9.876;2022-07-29T11:37:13;2.92;;;1.55;;
13672;SDS011;6909;52.202;9.876;2022-07-29T11:40:07;4.63;;;1.77;;
13672;SDS011;6909;52.202;9.876;2022-07-29T11:42:44;3.10;;;2.10;;
13672;SDS011;6909;52.202;9.876;2022-07-29T11:45:13;1.90;;;1.63;;
13672;SDS011;6909;52.202;9.876;2022-07-29T11:47:48;2.15;;;1.88;;
13672;SDS011;6909;52.202;9.876;2022-07-29T11:50:18;3.25;;;1.77;;
13672;SDS011;6909;52.202;9.876;2022-07-29T11:52:53;2.38;;;1.88;;
13672;SDS011;6909;52.202;9.876;2022-07-29T11:55:22;4.70;;;1.92;;
13672;SDS011;6909;52.202;9.876;2022-07-29T11:57:51;2.50;;;2.30;;
13672;SDS011;6909;52.202;9.876;2022-07-29T12:00:33;3.33;;;1.98;;
13672;SDS011;6909;52.202;9.876;2022-07-29T12:03:01;2.60;;;1.75;;
13672;SDS011;6909;52.202;9.876;2022-07-29T12:05:30;2.88;;;1.70;;
13672;SDS011;6909;52.202;9.876;2022-07-29T12:08:04;1.95;;;1.60;;
13672;SDS011;6909;52.202;9.876;2022-07-29T12:10:52;3.40;;;2.10;;
13672;SDS011;6909;52.202;9.876;2022-07-29T12:13:19;3.55;;;2.10;;
13672;SDS011;6909;52.202;9.876;2022-07-29T12:15:53;2.80;;;2.30;;
13672;SDS011;6909;52.202;9.876;2022-07-29T12:18:20;1.98;;;1.70;;
13672;SDS011;6909;52.202;9.876;2022-07-29T12:20:47;2.65;;;1.80;;
13672;SDS011;6909;52.202;9.876;2022-07-29T12:23:14;1.73;;;1.63;;
13672;SDS011;6909;52.202;9.876;2022-07-29T12:25:43;2.22;;;1.88;;
13672;SDS011;6909;52.202;9.876;2022-07-29T12:28:12;2.33;;;1.90;;
13672;SDS011;6909;52.202;9.876;2022-07-29T12:30:42;3.45;;;1.98;;
13672;SDS011;6909;52.202;9.876;2022-07-29T12:33:10;2.10;;;1.85;;
13672;SDS011;6909;52.202;9.876;2022-07-29T12:35:42;3.55;;;2.38;;
13672;SDS011;6909;52.202;9.876;2022-07-29T12:38:11;4.80;;;2.40;;
13672;SDS011;6909;52.202;9.876;2022-07-29T12:40:38;4.78;;;2.33;;
13672;SDS011;6909;52.202;9.876;2022-07-29T12:43:06;2.75;;;2.20;;
13672;SDS011;6909;52.202;9.876;2022-07-29T12:45:39;5.03;;;2.00;;
13672;SDS011;6909;52.202;9.876;2022-07-29T12:48:08;2.20;;;2.00;;
13672;SDS011;6909;52.202;9.876;2022-07-29T12:50:35;2.78;;;2.38;;
13672;SDS011;6909;52.202;9.876;2022-07-29T12:53:10;3.35;;;2.20;;
13672;SDS011;6909;52.202;9.876;2022-07-29T12:55:38;2.33;;;2.13;;
13672;SDS011;6909;52.202;9.876;2022-07-29T12:58:09;2.33;;;2.03;;
13672;SDS011;6909;52.202;9.876;2022-07-29T13:00:37;3.33;;;2.10;;
13672;SDS011;6909;52.202;9.876;2022-07-29T13:03:04;4.30;;;2.42;;
13672;SDS011;6909;52.202;9.876;2022-07-29T13:05:40;3.67;;;2.67;;
13672;SDS011;6909;52.202;9.876;2022-07-29T13:08:12;4.15;;;2.40;;
13672;SDS011;6909;52.202;9.876;2022-07-29T13:10:40;4.82;;;2.22;;
13672;SDS011;6909;52.202;9.876;2022-07-29T13:13:07;2.25;;;2.05;;
13672;SDS011;6909;52.202;9.876;2022-07-29T13:15:36;2.22;;;1.92;;
13672;SDS011;6909;52.202;9.876;2022-07-29T13:18:04;3.20;;;2.30;;
13672;SDS011;6909;52.202;9.876;2022-07-29T13:20:51;3.92;;;2.20;;
13672;SDS011;6909;52.202;9.876;2022-07-29T13:23:18;4.10;;;2.13;;
13672;SDS011;6909;52.202;9.876;2022-07-29T13:25:45;4.15;;;2.35;;
13672;SDS011;6909;52.202;9.876;2022-07-29T13:28:11;4.07;;;2.60;;
13672;SDS011;6909;52.202;9.876;2022-07-29T13:30:40;3.72;;;2.30;;
13672;SDS011;6909;52.202;9.876;2022-07-29T13:33:07;4.93;;;2.33;;
13672;SDS011;6909;52.202;9.876;2022-07-29T13:35:33;3.42;;;2.47;;
13672;SDS011;6909;52.202;9.876;2022-07-29T13:38:00;3.28;;;2.63;;
13672;SDS011;6909;52.202;9.876;2022-07-29T13:40:26;5.05;;;2.30;;
13672;SDS011;6909;52.202;9.876;2022-07-29T13:42:54;2.92;;;2.40;;
13672;SDS011;6909;52.202;9.876;2022-07-29T13:45:21;2.55;;;2.28;;
13672;SDS011;6909;52.202;9.876;2022-07-29T13:47:49;2.90;;;2.45;;
13672;SDS011;6909;52.202;9.876;2022-07-29T13:50:15;2.70;;;2.50;;
13672;SDS011;6909;52.202;9.876;2022-07-29T13:52:42;3.92;;;2.40;;
13672;SDS011;6909;52.202;9.876;2022-07-29T13:55:09;4.18;;;2.63;;
13672;SDS011;6909;52.202;9.876;2022-07-29T13:57:35;4.78;;;2.70;;
13672;SDS011;6909;52.202;9.876;2022-07-29T14:00:02;2.55;;;2.10;;
13672;SDS011;6909;52.202;9.876;2022-07-29T14:02:29;5.35;;;2.67;;
13672;SDS011;6909;52.202;9.876;2022-07-29T14:04:59;5.70;;;2.85;;
13672;SDS011;6909;52.202;9.876;2022-07-29T14:07:25;2.88;;;2.42;;
13672;SDS011;6909;52.202;9.876;2022-07-29T14:09:52;4.70;;;2.72;;
13672;SDS011;6909;52.202;9.876;2022-07-29T14:12:19;4.82;;;2.60;;
13672;SDS011;6909;52.202;9.876;2022-07-29T14:14:46;3.97;;;3.00;;
13672;SDS011;6909;52.202;9.876;2022-07-29T14:17:13;3.47;;;2.70;;
13672;SDS011;6909;52.202;9.876;2022-07-29T14:19:39;8.77;;;3.38;;
13672;SDS011;6909;52.202;9.876;2022-07-29T14:22:07;3.25;;;2.88;;
13672;SDS011;6909;52.202;9.876;2022-07-29T14:24:35;3.20;;;2.90;;
13672;SDS011;6909;52.202;9.876;2022-07-29T14:27:02;6.13;;;2.78;;
13672;SDS011;6909;52.202;9.876;2022-07-29T14:29:30;3.53;;;2.85;;
13672;SDS011;6909;52.202;9.876;2022-07-29T14:31:57;5.90;;;3.10;;
13672;SDS011;6909;52.202;9.876;2022-07-29T14:34:24;3.13;;;2.55;;
13672;SDS011;6909;52.202;9.876;2022-07-29T14:36:51;4.40;;;2.78;;
13672;SDS011;6909;52.202;9.876;2022-07-29T14:39:21;3.90;;;2.95;;
13672;SDS011;6909;52.202;9.876;2022-07-29T14:41:49;6.30;;;2.78;;
13672;SDS011;6909;52.202;9.876;2022-07-29T14:44:16;2.58;;;2.30;;
13672;SDS011;6909;52.202;9.876;2022-07-29T14:46:42;4.40;;;2.85;;
13672;SDS011;6909;52.202;9.876;2022-07-29T14:49:09;4.60;;;2.30;;
13672;SDS011;6909;52.202;9.876;2022-07-29T14:51:36;4.00;;;2.55;;
13672;SDS011;6909;52.202;9.876;2022-07-29T14:54:03;4.47;;;2.40;;
13672;SDS011;6909;52.202;9.876;2022-07-29T14:56:31;3.53;;;2.47;;
13672;SDS011;6909;52.202;9.876;2022-07-29T14:58:57;2.85;;;2.22;;
13672;SDS011;6909;52.202;9.876;2022-07-29T15:01:24;2.83;;;2.30;;
13672;SDS011;6909;52.202;9.876;2022-07-29T15:03:51;3.13;;;2.50;;
13672;SDS011;6909;52.202;9.876;2022-07-29T15:06:17;3.22;;;2.63;;
13672;SDS011;6909;52.202;9.876;2022-07-29T15:08:44;3.08;;;2.42;;
13672;SDS011;6909;52.202;9.876;2022-07-29T15:11:11;4.20;;;2.80;;
13672;SDS011;6909;52.202;9.876;2022-07-29T15:13:39;3.70;;;2.50;;
13672;SDS011;6909;52.202;9.876;2022-07-29T15:16:06;3.92;;;2.53;;
13672;SDS011;6909;52.202;9.876;2022-07-29T15:18:32;3.47;;;2.63;;